Terminal Aerodrome Forecast
Issued by NWS Tulsa, OK

Current Version | Previous Version | Text Only | Print | Product List | Glossary On
Versions: 1 2 3 4 5 6 7 8 9 10 11 12
000
FTUS44 KTSA 202300
TAFFSM
TAF
KFSM 202325Z 2100/2124 08003KT P6SM SCT050 BKN120
      TEMPO 2102/2106 5SM -SHRA BKN040
     FM211000 08003KT P6SM BKN020
     FM211300 08005KT P6SM BKN015 PROB30 2113/2117 -SHRA
     FM211900 25007KT P6SM BKN030 PROB30 2119/2124 5SM -TSRA
      BKN020CB=

USA.gov is the U.S. government's official web portal to all federal, state and local government web resources and services.